createdAt,value
2022-11-30T00:01:14.257Z,101723.00
2022-11-30T00:03:40.774Z,101718.31
2022-11-30T00:06:09.495Z,101724.38
2022-11-30T00:08:36.347Z,101725.22
2022-11-30T00:11:09.763Z,101720.00
2022-11-30T00:13:36.378Z,101724.25
2022-11-30T00:16:03.243Z,101724.38
2022-11-30T00:18:29.703Z,101730.47
2022-11-30T00:20:59.722Z,101727.41
2022-11-30T00:23:26.140Z,101726.47
2022-11-30T00:25:52.524Z,101732.09
2022-11-30T00:28:18.906Z,101731.81
2022-11-30T00:30:45.368Z,101727.97
2022-11-30T00:33:11.886Z,101728.09
2022-11-30T00:35:38.246Z,101727.41
2022-11-30T00:38:04.661Z,101721.91
2022-11-30T00:40:31.085Z,101723.00
2022-11-30T00:42:57.564Z,101717.91
2022-11-30T00:45:23.961Z,101718.59
2022-11-30T00:47:50.368Z,101724.53
2022-11-30T00:50:16.786Z,101727.41
2022-11-30T00:52:43.196Z,101727.66
2022-11-30T00:55:09.682Z,101726.47
2022-11-30T00:57:36.067Z,101720.94
2022-11-30T01:00:02.576Z,101722.88
2022-11-30T01:02:29.008Z,101720.41
2022-11-30T01:04:55.415Z,101723.00
2022-11-30T01:07:21.801Z,101714.47
2022-11-30T01:09:48.266Z,101721.22
2022-11-30T01:12:14.608Z,101722.88
2022-11-30T01:14:41.028Z,101731.41
2022-11-30T01:17:07.423Z,101732.66
2022-11-30T01:19:33.789Z,101723.16
2022-11-30T01:22:00.211Z,101731.81
2022-11-30T01:24:26.607Z,101735.28
2022-11-30T01:26:53.046Z,101741.06
2022-11-30T01:29:19.410Z,101740.25
2022-11-30T01:31:45.816Z,101738.03
2022-11-30T01:34:12.165Z,101739.69
2022-11-30T01:36:38.989Z,101736.38
2022-11-30T01:39:09.133Z,101736.94
2022-11-30T01:41:36.855Z,101735.00
2022-11-30T01:44:06.173Z,101732.50
2022-11-30T01:46:43.993Z,101734.72
2022-11-30T01:49:10.370Z,101741.06
2022-11-30T01:51:43.336Z,101730.47
2022-11-30T01:54:13.020Z,101738.72
2022-11-30T01:56:48.501Z,101744.81
2022-11-30T01:59:15.924Z,101745.50
2022-11-30T02:01:42.437Z,101749.88
2022-11-30T02:04:15.313Z,101746.59
2022-11-30T02:06:42.245Z,101748.09
2022-11-30T02:09:08.696Z,101748.09
2022-11-30T02:11:35.295Z,101746.44
2022-11-30T02:14:12.579Z,101744.81
2022-11-30T02:17:08.121Z,101739.28
2022-11-30T02:20:07.580Z,101737.34
2022-11-30T02:22:51.997Z,101744.50
2022-11-30T02:25:47.010Z,101741.06
2022-11-30T02:28:41.477Z,101734.47
2022-11-30T02:31:13.873Z,101725.50
2022-11-30T02:33:41.916Z,101735.56
2022-11-30T02:36:09.785Z,101727.97
2022-11-30T02:38:37.626Z,101730.47
2022-11-30T02:41:04.286Z,101725.91
2022-11-30T02:43:32.009Z,101728.78
2022-11-30T02:46:10.456Z,101728.53
2022-11-30T02:48:53.278Z,101728.53
2022-11-30T02:51:24.500Z,101726.03
2022-11-30T02:53:51.272Z,101728.38
2022-11-30T02:56:19.489Z,101724.94
2022-11-30T02:58:46.252Z,101733.09
2022-11-30T03:01:12.724Z,101728.25
2022-11-30T03:03:39.181Z,101722.31
2022-11-30T03:06:05.841Z,101722.31
2022-11-30T03:08:32.202Z,101720.13
2022-11-30T03:11:03.063Z,101724.28
2022-11-30T03:13:31.335Z,101720.66
2022-11-30T03:15:57.778Z,101723.84
2022-11-30T03:18:24.376Z,101721.94
2022-11-30T03:20:50.941Z,101720.25
2022-11-30T03:23:18.539Z,101723.03
2022-11-30T03:25:44.945Z,101724.81
2022-11-30T03:28:11.363Z,101723.84
2022-11-30T03:30:37.776Z,101728.41
2022-11-30T03:33:04.305Z,101727.44
2022-11-30T03:35:30.677Z,101727.72
2022-11-30T03:37:57.559Z,101722.19
2022-11-30T03:40:23.901Z,101727.44
2022-11-30T03:42:50.325Z,101736.78
2022-11-30T03:45:16.759Z,101739.69
2022-11-30T03:47:43.555Z,101737.06
2022-11-30T03:50:11.182Z,101733.06
2022-11-30T03:52:37.749Z,101731.97
2022-11-30T03:55:04.441Z,101739.69
2022-11-30T03:57:30.803Z,101747.69
2022-11-30T03:59:57.242Z,101742.59
2022-11-30T04:02:23.799Z,101743.44
2022-11-30T04:04:50.294Z,101750.59
2022-11-30T04:07:16.859Z,101743.69
2022-11-30T04:09:43.385Z,101742.31
2022-11-30T04:12:09.819Z,101750.19
2022-11-30T04:14:36.212Z,101751.00
2022-11-30T04:17:02.649Z,101753.63
2022-11-30T04:19:29.058Z,101759.69
2022-11-30T04:21:55.502Z,101751.41
2022-11-30T04:24:21.973Z,101759.69
2022-11-30T04:26:48.365Z,101757.19
2022-11-30T04:29:14.801Z,101754.84
2022-11-30T04:31:41.271Z,101759.81
2022-11-30T04:34:07.731Z,101763.28
2022-11-30T04:36:34.110Z,101763.69
2022-11-30T04:39:00.458Z,101758.59
2022-11-30T04:41:26.878Z,101766.00
2022-11-30T04:43:53.334Z,101774.13
2022-11-30T04:46:19.739Z,101768.59
2022-11-30T04:48:46.108Z,101769.56
2022-11-30T04:51:12.607Z,101769.53
2022-11-30T04:53:39.140Z,101772.16
2022-11-30T04:56:10.401Z,101777.78
2022-11-30T04:58:38.573Z,101776.97
2022-11-30T05:01:05.093Z,101769.28
2022-11-30T05:03:31.554Z,101772.72
2022-11-30T05:05:57.989Z,101770.63
2022-11-30T05:08:24.456Z,101777.66
2022-11-30T05:10:54.754Z,101783.69
2022-11-30T05:13:23.138Z,101782.63
2022-11-30T05:15:49.963Z,101780.00
2022-11-30T05:18:16.714Z,101784.13
2022-11-30T05:20:48.135Z,101786.75
2022-11-30T05:23:14.743Z,101787.00
2022-11-30T05:25:41.186Z,101797.72
2022-11-30T05:28:07.597Z,101791.38
2022-11-30T05:30:34.022Z,101794.25
2022-11-30T05:33:00.475Z,101796.19
2022-11-30T05:35:26.896Z,101787.22
2022-11-30T05:37:53.305Z,101797.56
2022-11-30T05:40:19.817Z,101789.97
2022-11-30T05:42:46.179Z,101790.69
2022-11-30T05:45:12.673Z,101791.38
2022-11-30T05:47:39.121Z,101791.06
2022-11-30T05:50:06.381Z,101794.50
2022-11-30T05:52:32.760Z,101790.63
2022-11-30T05:54:59.462Z,101788.97
2022-11-30T05:57:25.834Z,101795.03
2022-11-30T05:59:52.236Z,101790.31
2022-11-30T06:02:21.449Z,101797.31
2022-11-30T06:04:51.627Z,101799.22
2022-11-30T06:07:18.002Z,101799.91
2022-11-30T06:09:44.376Z,101811.72
2022-11-30T06:12:10.808Z,101815.69
2022-11-30T06:14:37.174Z,101813.31
2022-11-30T06:17:03.705Z,101809.16
2022-11-30T06:19:30.156Z,101810.72
2022-11-30T06:21:56.579Z,101806.94
2022-11-30T06:24:23.012Z,101802.69
2022-11-30T06:26:49.410Z,101808.88
2022-11-30T06:29:15.766Z,101808.16
2022-11-30T06:31:42.279Z,101811.47
2022-11-30T06:34:08.862Z,101810.91
2022-11-30T06:36:36.410Z,101813.06
2022-11-30T06:39:03.717Z,101804.72
2022-11-30T06:41:30.207Z,101812.19
2022-11-30T06:43:56.746Z,101815.72
2022-11-30T06:46:23.888Z,101812.41
2022-11-30T06:48:50.900Z,101814.69
2022-11-30T06:51:17.890Z,101816.00
2022-11-30T06:53:45.444Z,101822.88
2022-11-30T06:56:12.730Z,101820.16
2022-11-30T06:58:40.244Z,101816.56
2022-11-30T07:01:09.699Z,101820.84
2022-11-30T07:03:37.076Z,101821.41
2022-11-30T07:06:11.562Z,101823.91
2022-11-30T07:08:39.185Z,101823.53
2022-11-30T07:11:06.431Z,101826.97
2022-11-30T07:13:33.355Z,101822.06
2022-11-30T07:16:02.536Z,101829.09
2022-11-30T07:18:32.097Z,101830.88
2022-11-30T07:21:00.831Z,101833.38
2022-11-30T07:23:48.450Z,101836.91
2022-11-30T07:26:18.914Z,101833.81
2022-11-30T07:28:51.242Z,101838.59
2022-11-30T07:31:19.971Z,101841.78
2022-11-30T07:33:47.650Z,101848.88
2022-11-30T07:36:15.440Z,101847.69
2022-11-30T07:38:41.888Z,101846.59
2022-11-30T07:41:08.666Z,101849.53
2022-11-30T07:43:35.229Z,101852.16
2022-11-30T07:46:02.796Z,101859.88
2022-11-30T07:48:29.235Z,101874.34
2022-11-30T07:51:02.490Z,101870.53
2022-11-30T07:53:28.962Z,101868.88
2022-11-30T07:56:01.596Z,101867.94
2022-11-30T07:58:29.681Z,101869.44
2022-11-30T08:01:02.772Z,101867.66
2022-11-30T08:03:32.377Z,101865.88
2022-11-30T08:06:08.841Z,101871.88
2022-11-30T08:08:40.959Z,101869.72
2022-11-30T08:11:09.350Z,101867.41
2022-11-30T08:13:35.909Z,101879.50
2022-11-30T08:16:08.374Z,101882.84
2022-11-30T08:18:35.318Z,101877.59
2022-11-30T08:21:05.562Z,101880.13
2022-11-30T08:23:38.064Z,101886.03
2022-11-30T08:26:07.186Z,101884.38
2022-11-30T08:28:37.509Z,101883.84
2022-11-30T08:31:07.418Z,101881.66
2022-11-30T08:33:35.563Z,101889.09
2022-11-30T08:36:20.117Z,101883.75
2022-11-30T08:38:47.623Z,101889.91
2022-11-30T08:41:16.606Z,101897.25
2022-11-30T08:43:43.312Z,101897.13
2022-11-30T08:46:42.636Z,101899.06
2022-11-30T08:49:19.808Z,101903.06
2022-11-30T08:54:33.789Z,101911.44
2022-11-30T08:57:00.183Z,101912.38
2022-11-30T08:59:26.654Z,101905.25
2022-11-30T09:01:53.213Z,101913.22
2022-11-30T09:04:19.592Z,101911.06
2022-11-30T09:06:46.059Z,101909.84
2022-11-30T09:09:12.402Z,101909.00
2022-11-30T09:11:38.926Z,101916.03
2022-11-30T09:14:05.483Z,101920.75
2022-11-30T09:16:32.050Z,101925.16
2022-11-30T09:18:58.573Z,101915.25
2022-11-30T09:21:25.737Z,101918.00
2022-11-30T09:23:52.786Z,101924.66
2022-11-30T09:26:21.675Z,101927.06
2022-11-30T09:28:48.582Z,101933.56
2022-11-30T09:31:21.244Z,101925.28
2022-11-30T09:33:48.500Z,101926.75
2022-11-30T09:36:17.289Z,101924.94
2022-11-30T09:38:43.978Z,101927.47
2022-11-30T09:41:13.211Z,101927.72
2022-11-30T09:43:52.620Z,101930.09
2022-11-30T09:46:25.922Z,101925.41
2022-11-30T09:49:18.758Z,101921.25
2022-11-30T09:51:49.567Z,101924.19
2022-11-30T09:54:20.991Z,101921.00
2022-11-30T09:56:47.540Z,101921.56
2022-11-30T09:59:19.579Z,101926.75
2022-11-30T10:01:51.991Z,101919.66
2022-11-30T10:04:29.921Z,101925.03
2022-11-30T10:07:09.888Z,101916.72
2022-11-30T10:12:52.668Z,101923.09
2022-11-30T10:15:22.049Z,101916.47
2022-11-30T10:18:30.173Z,101921.44
2022-11-30T10:21:16.001Z,101924.44
2022-11-30T10:23:58.497Z,101924.41
2022-11-30T10:26:34.426Z,101922.94
2022-11-30T10:29:20.375Z,101921.44
2022-11-30T10:31:49.567Z,101923.09
2022-11-30T10:34:21.791Z,101922.13
2022-11-30T10:36:54.924Z,101918.56
2022-11-30T10:39:31.566Z,101919.84
2022-11-30T10:42:09.764Z,101919.41
2022-11-30T10:44:40.383Z,101919.72
2022-11-30T10:47:26.385Z,101913.09
2022-11-30T10:49:53.043Z,101905.63
2022-11-30T10:52:32.291Z,101916.19
2022-11-30T10:55:04.605Z,101906.72
2022-11-30T10:57:33.155Z,101912.19
2022-11-30T11:00:02.364Z,101909.03
2022-11-30T11:02:34.747Z,101907.25
2022-11-30T11:05:28.858Z,101907.41
2022-11-30T11:08:05.913Z,101905.25
2022-11-30T11:10:42.672Z,101898.88
2022-11-30T11:13:42.529Z,101912.72
2022-11-30T11:16:13.487Z,101908.28
2022-11-30T11:18:55.095Z,101909.25
2022-11-30T11:21:23.289Z,101907.72
2022-11-30T11:23:52.919Z,101905.63
2022-11-30T11:26:29.844Z,101907.72
2022-11-30T11:28:59.549Z,101908.56
2022-11-30T11:31:47.287Z,101908.63
2022-11-30T11:34:26.461Z,101908.09
2022-11-30T11:37:15.503Z,101911.66
2022-11-30T11:39:41.950Z,101906.63
2022-11-30T11:42:21.984Z,101912.13
2022-11-30T11:44:59.621Z,101913.09
2022-11-30T11:47:29.607Z,101912.25
2022-11-30T11:50:20.848Z,101905.34
2022-11-30T11:53:11.725Z,101908.16
2022-11-30T11:55:39.526Z,101901.81
2022-11-30T11:58:06.295Z,101901.03
2022-11-30T12:00:33.205Z,101907.34
2022-11-30T12:03:05.726Z,101901.03
2022-11-30T12:05:43.952Z,101909.59
2022-11-30T12:08:34.913Z,101905.75
2022-11-30T12:11:23.268Z,101903.94
2022-11-30T12:13:50.334Z,101913.19
2022-11-30T12:16:32.905Z,101903.84
2022-11-30T12:19:36.894Z,101907.56
2022-11-30T12:22:27.816Z,101907.97
2022-11-30T12:25:21.722Z,101910.69
2022-11-30T12:27:54.483Z,101904.78
2022-11-30T12:30:32.476Z,101902.19
2022-11-30T12:33:13.206Z,101893.50
2022-11-30T12:36:21.597Z,101900.13
2022-11-30T12:38:55.879Z,101903.13
2022-11-30T12:41:34.481Z,101903.25
2022-11-30T12:44:12.724Z,101910.88
2022-11-30T12:47:17.625Z,101911.44
2022-11-30T12:50:19.202Z,101918.19
2022-11-30T12:53:01.462Z,101915.44
2022-11-30T12:55:48.115Z,101924.00
2022-11-30T12:58:25.626Z,101918.91
2022-11-30T13:01:01.164Z,101923.81
2022-11-30T13:03:49.459Z,101921.75
2022-11-30T13:06:24.507Z,101925.75
2022-11-30T13:09:03.529Z,101926.13
2022-11-30T13:11:56.316Z,101915.81
2022-11-30T13:14:25.585Z,101914.03
2022-11-30T13:17:01.478Z,101928.13
2022-11-30T13:20:14.357Z,101915.03
2022-11-30T13:22:50.660Z,101924.06
2022-11-30T13:26:09.939Z,101920.66
2022-11-30T13:28:42.233Z,101919.97
2022-11-30T13:31:33.977Z,101920.50
2022-11-30T13:34:00.798Z,101929.00
2022-11-30T13:36:33.015Z,101928.38
2022-11-30T13:39:14.278Z,101926.69
2022-11-30T13:41:43.909Z,101927.13
2022-11-30T13:44:22.392Z,101919.28
2022-11-30T13:46:53.407Z,101924.66
2022-11-30T13:49:38.028Z,101914.03
2022-11-30T13:52:23.223Z,101921.47
2022-11-30T13:54:54.523Z,101917.44
2022-11-30T13:57:30.190Z,101914.31
2022-11-30T13:59:58.082Z,101921.47
2022-11-30T14:02:33.738Z,101917.63
2022-11-30T14:05:18.581Z,101931.38
2022-11-30T14:08:10.010Z,101929.84
2022-11-30T14:10:37.824Z,101930.53
2022-11-30T14:13:10.599Z,101932.75
2022-11-30T14:15:40.725Z,101933.16
2022-11-30T14:18:10.201Z,101934.84
2022-11-30T14:20:43.828Z,101935.53
2022-11-30T14:23:29.596Z,101939.75
2022-11-30T14:26:00.524Z,101944.84
2022-11-30T14:28:58.969Z,101946.78
2022-11-30T14:31:31.652Z,101942.38
2022-11-30T14:34:06.329Z,101942.38
2022-11-30T14:36:36.022Z,101949.41
2022-11-30T14:39:02.554Z,101955.47
2022-11-30T14:41:30.947Z,101951.84
2022-11-30T14:44:02.904Z,101952.91
2022-11-30T14:46:30.551Z,101957.78
2022-11-30T14:49:07.042Z,101954.88
2022-11-30T14:51:33.722Z,101955.59
2022-11-30T14:54:15.234Z,101958.47
2022-11-30T14:56:52.189Z,101962.88
2022-11-30T14:59:45.862Z,101959.81
2022-11-30T15:02:33.625Z,101958.41
2022-11-30T15:05:00.685Z,101959.75
2022-11-30T15:07:29.791Z,101954.97
2022-11-30T15:10:12.298Z,101953.84
2022-11-30T15:12:40.667Z,101957.84
2022-11-30T15:15:27.848Z,101962.56
2022-11-30T15:18:18.499Z,101955.22
2022-11-30T15:20:49.935Z,101957.13
2022-11-30T15:23:17.151Z,101955.22
2022-11-30T15:25:47.575Z,101959.22
2022-11-30T15:28:24.387Z,101959.75
2022-11-30T15:30:56.867Z,101957.50
2022-11-30T15:33:26.879Z,101959.88
2022-11-30T15:36:16.301Z,101967.38
2022-11-30T15:38:47.097Z,101972.00
2022-11-30T15:41:21.404Z,101974.91
2022-11-30T15:43:56.275Z,101975.75
2022-11-30T15:46:46.081Z,101973.34
2022-11-30T15:49:12.915Z,101972.06
2022-11-30T15:51:45.172Z,101976.88
2022-11-30T15:54:11.868Z,101981.81
2022-11-30T15:56:38.441Z,101979.09
2022-11-30T15:59:08.092Z,101973.72
2022-11-30T16:02:04.654Z,101986.44
2022-11-30T16:05:13.790Z,101978.97
2022-11-30T16:07:53.807Z,101982.84
2022-11-30T16:10:27.604Z,101986.53
2022-11-30T16:12:54.978Z,101983.22
2022-11-30T16:15:28.347Z,101990.00
2022-11-30T16:18:21.300Z,101990.97
2022-11-30T16:20:54.059Z,101987.97
2022-11-30T16:23:20.927Z,101994.28
2022-11-30T16:25:49.033Z,101996.22
2022-11-30T16:28:17.342Z,101997.84
2022-11-30T16:30:45.136Z,101998.56
2022-11-30T16:33:24.470Z,101995.94
2022-11-30T16:35:53.816Z,101997.84
2022-11-30T16:38:20.638Z,102000.22
2022-11-30T16:40:47.112Z,101997.00
2022-11-30T16:43:14.332Z,101992.63
2022-11-30T16:45:42.146Z,101992.44
2022-11-30T16:48:08.602Z,101990.38
2022-11-30T16:50:36.307Z,102004.44
2022-11-30T16:53:04.637Z,101992.75
2022-11-30T16:55:37.733Z,102003.75
2022-11-30T16:58:04.758Z,102006.09
2022-11-30T17:00:32.025Z,102000.75
2022-11-30T17:03:22.495Z,102005.28
2022-11-30T17:05:49.274Z,102005.00
2022-11-30T17:08:15.874Z,102005.84
2022-11-30T17:10:42.788Z,102016.81
2022-11-30T17:13:13.879Z,102006.22
2022-11-30T17:15:40.564Z,102011.91
2022-11-30T17:18:07.085Z,102012.16
2022-11-30T17:20:35.806Z,102019.31
2022-11-30T17:23:02.626Z,102020.38
2022-11-30T17:25:29.119Z,102023.59
2022-11-30T17:27:55.557Z,102014.63
2022-11-30T17:30:23.746Z,102013.44
2022-11-30T17:32:50.787Z,102014.06
2022-11-30T17:35:18.634Z,102021.78
2022-11-30T17:37:45.546Z,102023.31
2022-11-30T17:40:13.144Z,102021.28
2022-11-30T17:42:40.552Z,102037.94
2022-11-30T17:45:07.560Z,102036.19
2022-11-30T17:47:33.972Z,102043.75
2022-11-30T17:50:00.423Z,102036.75
2022-11-30T17:52:26.895Z,102035.91
2022-11-30T17:54:53.276Z,102036.75
2022-11-30T17:57:19.700Z,102040.91
2022-11-30T17:59:46.113Z,102048.88
2022-11-30T18:02:12.620Z,102050.81
2022-11-30T18:04:39.686Z,102055.75
2022-11-30T18:07:06.268Z,102049.00
2022-11-30T18:09:37.805Z,102045.94
2022-11-30T18:12:07.512Z,102049.16
2022-11-30T18:14:34.021Z,102053.38
2022-11-30T18:17:00.470Z,102058.09
2022-11-30T18:19:27.065Z,102059.78
2022-11-30T18:21:55.281Z,102062.25
2022-11-30T18:24:25.227Z,102061.22
2022-11-30T18:26:52.535Z,102064.66
2022-11-30T18:29:19.115Z,102059.91
2022-11-30T18:31:48.114Z,102061.19
2022-11-30T18:34:14.851Z,102056.44
2022-11-30T18:36:41.234Z,102058.09
2022-11-30T18:39:07.653Z,102068.78
2022-11-30T18:41:34.053Z,102064.03
2022-11-30T18:44:00.453Z,102056.78
2022-11-30T18:46:27.473Z,102053.47
2022-11-30T18:48:54.610Z,102059.06
2022-11-30T18:51:24.070Z,102067.25
2022-11-30T18:53:57.707Z,102063.31
2022-11-30T18:56:26.016Z,102068.19
2022-11-30T18:59:13.276Z,102068.91
2022-11-30T19:01:40.497Z,102058.22
2022-11-30T19:04:09.529Z,102058.34
2022-11-30T19:06:37.770Z,102069.97
2022-11-30T19:09:08.494Z,102070.38
2022-11-30T19:11:35.606Z,102066.91
2022-11-30T19:14:03.282Z,102070.94
2022-11-30T19:16:30.879Z,102069.53
2022-11-30T19:19:06.617Z,102065.25
2022-11-30T19:21:33.786Z,102075.47
2022-11-30T19:24:00.370Z,102079.03
2022-11-30T19:26:28.410Z,102082.94
2022-11-30T19:28:56.249Z,102076.31
2022-11-30T19:31:24.089Z,102074.75
2022-11-30T19:33:53.028Z,102078.78
2022-11-30T19:36:24.699Z,102084.97
2022-11-30T19:38:51.514Z,102081.22
2022-11-30T19:41:19.979Z,102082.16
2022-11-30T19:43:53.163Z,102078.69
2022-11-30T19:46:21.436Z,102089.75
2022-11-30T19:48:47.974Z,102090.97
2022-11-30T19:51:18.675Z,102096.06
2022-11-30T19:53:45.466Z,102093.69
2022-11-30T19:56:14.645Z,102098.34
2022-11-30T19:58:43.816Z,102092.13
2022-11-30T20:01:14.539Z,102095.38
2022-11-30T20:03:44.440Z,102101.03
2022-11-30T20:06:11.687Z,102095.94
2022-11-30T20:08:38.628Z,102095.59
2022-11-30T20:11:09.580Z,102104.28
2022-11-30T20:13:36.447Z,102101.66
2022-11-30T20:16:10.716Z,102108.94
2022-11-30T20:18:41.282Z,102104.28
2022-11-30T20:21:23.322Z,102102.38
2022-11-30T20:23:51.030Z,102095.84
2022-11-30T20:26:20.606Z,102105.28
2022-11-30T20:28:48.112Z,102101.19
2022-11-30T20:31:16.104Z,102099.06
2022-11-30T20:33:43.157Z,102110.03
2022-11-30T20:36:10.939Z,102105.72
2022-11-30T20:38:37.941Z,102105.47
2022-11-30T20:41:08.057Z,102110.59
2022-11-30T20:43:34.452Z,102111.31
2022-11-30T20:46:00.929Z,102111.09
2022-11-30T20:48:28.024Z,102112.88
2022-11-30T20:51:22.274Z,102117.75
2022-11-30T20:53:41.784Z,102115.13
2022-11-30T20:56:08.964Z,102119.78
2022-11-30T20:58:35.614Z,102117.63
2022-11-30T21:01:18.812Z,102119.06
2022-11-30T21:03:45.834Z,102113.84
2022-11-30T21:06:13.161Z,102121.91
2022-11-30T21:08:40.475Z,102116.47
2022-11-30T21:11:12.498Z,102114.19
2022-11-30T21:13:40.466Z,102122.50
2022-11-30T21:16:08.225Z,102118.09
2022-11-30T21:18:35.969Z,102122.16
2022-11-30T21:21:13.439Z,102123.13
2022-11-30T21:23:40.074Z,102118.47
2022-11-30T21:26:13.653Z,102118.09
2022-11-30T21:28:40.051Z,102123.09
2022-11-30T21:31:06.898Z,102119.66
2022-11-30T21:33:33.598Z,102115.50
2022-11-30T21:36:00.141Z,102115.63
2022-11-30T21:38:26.535Z,102110.72
2022-11-30T21:40:55.024Z,102109.41
2022-11-30T21:43:21.666Z,102108.72
2022-11-30T21:46:02.687Z,102110.75
2022-11-30T21:48:30.828Z,102114.56
2022-11-30T21:51:01.761Z,102100.28
2022-11-30T21:53:29.872Z,102100.16
2022-11-30T21:56:01.975Z,102104.44
2022-11-30T21:58:30.623Z,102101.00
2022-11-30T22:00:58.313Z,102110.63
2022-11-30T22:03:25.075Z,102109.53
2022-11-30T22:05:59.016Z,102105.28
2022-11-30T22:08:25.634Z,102108.38
2022-11-30T22:10:52.050Z,102103.47
2022-11-30T22:13:18.442Z,102107.28
2022-11-30T22:15:44.821Z,102106.00
2022-11-30T22:18:11.239Z,102108.97
2022-11-30T22:20:37.721Z,102106.09
2022-11-30T22:23:04.112Z,102104.59
2022-11-30T22:25:30.611Z,102112.03
2022-11-30T22:27:57.025Z,102106.91
2022-11-30T22:30:23.420Z,102112.53
2022-11-30T22:32:49.825Z,102108.00
2022-11-30T22:35:16.221Z,102111.94
2022-11-30T22:37:42.676Z,102116.81
2022-11-30T22:40:09.865Z,102112.78
2022-11-30T22:42:36.283Z,102112.66
2022-11-30T22:45:02.683Z,102117.63
2022-11-30T22:47:29.059Z,102113.13
2022-11-30T22:49:55.553Z,102115.03
2022-11-30T22:52:36.388Z,102112.13
2022-11-30T22:55:08.890Z,102121.91
2022-11-30T22:57:35.349Z,102113.81
2022-11-30T23:00:01.820Z,102115.59
2022-11-30T23:02:28.317Z,102106.72
2022-11-30T23:04:54.675Z,102111.69
2022-11-30T23:07:21.046Z,102110.63
2022-11-30T23:09:47.631Z,102115.75
2022-11-30T23:12:24.843Z,102115.97
2022-11-30T23:15:00.736Z,102119.66
2022-11-30T23:17:27.103Z,102115.13
2022-11-30T23:19:53.496Z,102116.31
2022-11-30T23:22:19.905Z,102107.91
2022-11-30T23:24:46.258Z,102108.38
2022-11-30T23:27:12.816Z,102114.06
2022-11-30T23:29:40.308Z,102106.00
2022-11-30T23:32:08.023Z,102117.88
2022-11-30T23:34:34.536Z,102113.84
2022-11-30T23:37:00.913Z,102117.16
2022-11-30T23:39:27.329Z,102119.66
2022-11-30T23:41:53.738Z,102120.69
2022-11-30T23:44:20.133Z,102121.31
2022-11-30T23:46:46.979Z,102111.22
2022-11-30T23:49:14.177Z,102118.22
2022-11-30T23:51:41.145Z,102114.88
2022-11-30T23:54:07.554Z,102111.06
2022-11-30T23:56:33.933Z,102115.47
2022-11-30T23:59:00.373Z,102113.94
